Time;durP1;ratioP1;P1;durP2;ratioP2;P2;SDS_P1;SDS_P2;PMS_P1;PMS_P2;Temp;Humidity;BMP_temperature;BMP_pressure;BME280_temperature;BME280_humidity;BME280_pressure;Samples;Min_cycle;Max_cycle;Signal;HPM_P1;HPM_P2
2022/04/10 00:00:08;;;;;;;9.30;2.30;;;4.60;99.90;;;;;;5088638;28;20027;-76
2022/04/10 00:02:34;;;;;;;8.43;1.98;;;4.60;99.90;;;;;;5087410;28;20054;-76
2022/04/10 00:04:59;;;;;;;12.77;2.63;;;4.60;99.90;;;;;;5069068;28;20088;-76
2022/04/10 00:07:25;;;;;;;7.00;2.20;;;4.60;99.90;;;;;;5086773;28;20021;-76
2022/04/10 00:09:50;;;;;;;8.43;1.98;;;4.60;99.90;;;;;;5086543;28;20082;-76
2022/04/10 00:12:16;;;;;;;10.95;2.00;;;4.60;99.90;;;;;;5075271;28;20032;-76
2022/04/10 00:14:41;;;;;;;8.93;2.00;;;4.60;99.90;;;;;;5078553;28;20047;-76
2022/04/10 00:17:07;;;;;;;8.63;1.92;;;4.60;99.90;;;;;;5087633;28;20041;-76
2022/04/10 00:19:33;;;;;;;8.27;2.20;;;4.60;99.90;;;;;;5087782;28;20029;-77
2022/04/10 00:21:58;;;;;;;12.90;2.10;;;4.60;99.90;;;;;;5069666;28;20025;-76
2022/04/10 00:24:25;;;;;;;9.50;1.90;;;4.60;99.90;;;;;;5088156;28;20106;-76
2022/04/10 00:26:52;;;;;;;9.57;1.88;;;4.70;99.90;;;;;;5088221;28;20024;-76
2022/04/10 00:29:18;;;;;;;10.88;2.45;;;4.70;99.90;;;;;;5087845;28;20032;-76
2022/04/10 00:31:44;;;;;;;7.15;2.00;;;4.60;99.90;;;;;;5087278;28;20076;-76
2022/04/10 00:34:10;;;;;;;9.05;2.22;;;4.60;99.90;;;;;;5088873;28;20028;-76
2022/04/10 00:36:36;;;;;;;7.85;1.90;;;4.60;99.90;;;;;;5091194;28;20025;-76
2022/04/10 00:39:01;;;;;;;8.82;2.45;;;4.60;99.90;;;;;;5088622;28;20017;-76
2022/04/10 00:41:27;;;;;;;13.15;2.70;;;4.60;99.90;;;;;;5088692;28;20028;-76
2022/04/10 00:44:10;;;;;;;9.38;2.13;;;4.60;99.90;;;;;;5088422;28;20039;-76
2022/04/10 00:46:36;;;;;;;7.05;2.17;;;4.50;99.90;;;;;;5088195;28;20020;-76
2022/04/10 00:49:03;;;;;;;6.40;1.92;;;4.50;99.90;;;;;;5088245;28;20122;-76
2022/04/10 00:51:46;;;;;;;6.25;1.90;;;4.50;99.90;;;;;;5087530;28;20111;-75
2022/04/10 00:54:17;;;;;;;13.05;2.58;;;4.40;99.90;;;;;;5087270;28;20032;-76
2022/04/10 00:56:44;;;;;;;10.30;2.35;;;4.40;99.90;;;;;;5086376;28;20042;-77
2022/04/10 00:59:10;;;;;;;9.93;2.33;;;4.40;99.90;;;;;;5085073;28;20056;-76
2022/04/10 01:01:37;;;;;;;16.45;2.10;;;4.30;99.90;;;;;;5086926;28;20020;-76
2022/04/10 01:04:04;;;;;;;10.20;2.30;;;4.30;99.90;;;;;;5086589;28;20025;-76
2022/04/10 01:06:32;;;;;;;10.27;2.35;;;4.30;99.90;;;;;;5087439;28;20024;-76
2022/04/10 01:08:58;;;;;;;8.07;2.38;;;4.30;99.90;;;;;;5086797;28;20024;-76
2022/04/10 01:11:23;;;;;;;7.85;2.40;;;4.30;99.90;;;;;;5087234;28;20016;-76
2022/04/10 01:13:49;;;;;;;14.00;2.50;;;4.30;99.90;;;;;;5083514;28;20031;-76
2022/04/10 01:16:15;;;;;;;10.23;2.45;;;4.30;99.90;;;;;;5067144;28;20028;-76
2022/04/10 01:18:41;;;;;;;13.38;2.45;;;4.20;99.90;;;;;;5066790;28;20049;-76
2022/04/10 01:21:07;;;;;;;13.02;2.88;;;4.20;99.90;;;;;;5066382;28;20018;-76
2022/04/10 01:23:33;;;;;;;11.95;2.08;;;4.10;99.90;;;;;;5066749;28;20025;-76
2022/04/10 01:25:59;;;;;;;7.88;2.13;;;4.10;99.90;;;;;;5065249;28;20033;-76
2022/04/10 01:28:24;;;;;;;8.25;2.35;;;4.10;99.90;;;;;;5065141;28;20032;-76
2022/04/10 01:30:50;;;;;;;9.07;2.15;;;4.10;99.90;;;;;;5065116;28;20120;-76
2022/04/10 01:33:15;;;;;;;8.52;2.10;;;4.10;99.90;;;;;;5065339;28;20476;-76
2022/04/10 01:35:41;;;;;;;9.55;2.63;;;4.10;99.90;;;;;;5065259;28;20014;-76
2022/04/10 01:38:08;;;;;;;11.80;2.20;;;4.00;99.90;;;;;;5065181;28;20047;-76
2022/04/10 01:40:34;;;;;;;13.05;2.28;;;4.00;99.90;;;;;;5066195;28;20029;-76
2022/04/10 01:43:00;;;;;;;10.60;1.92;;;4.00;99.90;;;;;;5067522;28;20048;-76
2022/04/10 01:45:25;;;;;;;16.02;2.22;;;4.00;99.90;;;;;;5066827;28;20088;-76
2022/04/10 01:47:52;;;;;;;8.10;2.40;;;4.00;99.90;;;;;;5068040;28;20028;-76
2022/04/10 01:50:17;;;;;;;12.90;2.40;;;4.00;99.90;;;;;;5067400;28;20025;-76
2022/04/10 01:52:43;;;;;;;11.40;2.17;;;4.00;99.90;;;;;;5066814;28;20037;-76
2022/04/10 01:55:09;;;;;;;5.57;2.03;;;4.00;99.90;;;;;;5066241;28;20025;-76
2022/04/10 01:57:35;;;;;;;8.05;2.38;;;4.00;99.90;;;;;;5065661;28;20036;-76
2022/04/10 02:00:00;;;;;;;10.55;2.30;;;4.00;99.90;;;;;;5065733;28;20127;-76
2022/04/10 02:02:26;;;;;;;9.98;2.53;;;3.90;99.90;;;;;;5066571;28;20048;-76
2022/04/10 02:04:52;;;;;;;6.80;2.03;;;3.90;99.90;;;;;;5069092;28;20027;-77
2022/04/10 02:07:18;;;;;;;10.13;2.63;;;3.90;99.90;;;;;;5068612;28;20088;-76
2022/04/10 02:09:44;;;;;;;5.60;2.03;;;3.90;99.90;;;;;;5067799;28;20396;-76
2022/04/10 02:12:10;;;;;;;8.32;2.03;;;3.90;99.90;;;;;;5068887;28;20032;-76
2022/04/10 02:14:35;;;;;;;9.43;1.80;;;3.90;99.90;;;;;;5078761;28;20020;-76
2022/04/10 02:17:01;;;;;;;8.38;1.90;;;3.80;99.90;;;;;;5088685;28;20075;-76
2022/04/10 02:19:27;;;;;;;8.77;2.10;;;3.80;99.90;;;;;;5089178;28;20021;-76
2022/04/10 02:21:54;;;;;;;11.25;2.25;;;3.80;99.90;;;;;;5090043;28;20099;-76
2022/04/10 02:24:20;;;;;;;6.80;1.88;;;3.80;99.90;;;;;;5089160;28;20033;-76
2022/04/10 02:26:46;;;;;;;9.93;2.15;;;3.80;99.90;;;;;;5088168;28;20433;-76
2022/04/10 02:29:11;;;;;;;6.90;2.08;;;3.80;99.90;;;;;;5089306;28;20028;-76
2022/04/10 02:31:37;;;;;;;6.22;2.15;;;3.80;99.90;;;;;;5071238;28;20043;-76
2022/04/10 02:34:02;;;;;;;7.30;2.47;;;3.80;99.90;;;;;;5089491;28;20500;-76
2022/04/10 02:36:28;;;;;;;8.18;2.08;;;3.80;99.90;;;;;;5091398;28;20550;-76
2022/04/10 02:38:53;;;;;;;6.28;1.95;;;3.80;99.90;;;;;;5091554;28;20036;-76
2022/04/10 02:41:19;;;;;;;6.63;1.83;;;3.80;99.90;;;;;;5090344;28;20040;-76
2022/04/10 02:43:44;;;;;;;8.27;2.20;;;3.80;99.90;;;;;;5089811;28;20037;-76
2022/04/10 02:46:10;;;;;;;7.57;2.08;;;3.80;99.90;;;;;;5091024;28;20088;-76
2022/04/10 02:48:35;;;;;;;8.00;2.10;;;3.80;99.90;;;;;;5090243;28;20024;-76
2022/04/10 02:51:02;;;;;;;6.88;2.10;;;3.80;99.90;;;;;;5089873;28;20020;-76
2022/04/10 02:53:28;;;;;;;9.77;2.20;;;3.80;99.90;;;;;;5090256;28;20016;-76
2022/04/10 02:55:54;;;;;;;8.98;2.10;;;3.80;99.90;;;;;;5088311;28;20470;-76
2022/04/10 02:58:19;;;;;;;9.98;2.30;;;3.80;99.90;;;;;;5070562;28;20025;-76
2022/04/10 03:00:45;;;;;;;8.27;1.90;;;3.80;99.90;;;;;;5069770;28;20382;-76
2022/04/10 03:03:10;;;;;;;10.77;2.67;;;3.80;99.90;;;;;;5069779;28;20093;-76
2022/04/10 03:05:36;;;;;;;7.90;1.88;;;3.80;99.90;;;;;;5071460;28;20025;-76
2022/04/10 03:08:02;;;;;;;14.15;2.50;;;3.80;99.90;;;;;;5072568;28;20021;-76
2022/04/10 03:10:27;;;;;;;10.32;2.30;;;3.80;99.90;;;;;;5072792;28;20104;-76
2022/04/10 03:12:53;;;;;;;8.45;2.17;;;3.80;99.90;;;;;;5072358;28;20017;-76
2022/04/10 03:15:19;;;;;;;7.00;2.20;;;3.80;99.90;;;;;;5069430;28;20100;-76
2022/04/10 03:17:44;;;;;;;8.45;2.25;;;3.80;99.90;;;;;;5088913;28;20045;-76
2022/04/10 03:20:13;;;;;;;8.63;2.35;;;3.80;99.90;;;;;;5088998;28;20037;-76
2022/04/10 03:22:39;;;;;;;10.40;2.17;;;3.80;99.90;;;;;;5090005;28;20088;-76
2022/04/10 03:25:06;;;;;;;6.43;2.42;;;3.80;99.90;;;;;;5090184;28;20056;-76
2022/04/10 03:27:31;;;;;;;7.32;2.10;;;3.70;99.90;;;;;;5090892;28;20024;-76
2022/04/10 03:29:57;;;;;;;14.38;2.47;;;3.70;99.90;;;;;;5090870;28;20025;-76
2022/04/10 03:32:22;;;;;;;9.88;2.63;;;3.70;99.90;;;;;;5071581;28;20081;-77
2022/04/10 03:34:48;;;;;;;6.78;2.10;;;3.70;99.90;;;;;;5087309;28;20043;-76
2022/04/10 03:37:13;;;;;;;5.40;1.70;;;3.70;99.90;;;;;;5088893;28;20025;-76
2022/04/10 03:39:39;;;;;;;10.80;2.33;;;3.60;99.90;;;;;;5091113;28;20076;-76
2022/04/10 03:42:05;;;;;;;6.80;2.47;;;3.60;99.90;;;;;;5089712;28;20031;-76
2022/04/10 03:44:31;;;;;;;9.80;2.67;;;3.60;99.90;;;;;;5091103;28;20028;-76
2022/04/10 03:46:56;;;;;;;6.63;2.60;;;3.60;99.90;;;;;;5091606;28;20076;-76
2022/04/10 03:49:22;;;;;;;6.80;2.38;;;3.50;99.90;;;;;;5092902;28;20051;-76
2022/04/10 03:51:47;;;;;;;9.68;2.53;;;3.50;99.90;;;;;;5091684;28;20042;-76
2022/04/10 03:54:13;;;;;;;7.97;2.40;;;3.50;99.90;;;;;;5091014;28;20032;-76
2022/04/10 03:56:38;;;;;;;8.07;2.33;;;3.40;99.90;;;;;;5091345;28;20036;-76
2022/04/10 03:59:04;;;;;;;9.70;2.45;;;3.40;99.90;;;;;;5091158;28;20037;-76
2022/04/10 04:01:30;;;;;;;7.03;2.60;;;3.40;99.90;;;;;;5090496;28;20024;-76
2022/04/10 04:03:55;;;;;;;8.10;2.30;;;3.40;99.90;;;;;;5090785;28;20123;-76
2022/04/10 04:06:21;;;;;;;8.15;2.88;;;3.30;99.90;;;;;;5095483;28;20107;-77
2022/04/10 04:08:46;;;;;;;10.25;3.22;;;3.30;99.90;;;;;;5094805;28;20028;-76
2022/04/10 04:11:12;;;;;;;7.15;2.10;;;3.30;99.90;;;;;;5095083;28;20027;-76
2022/04/10 04:13:41;;;;;;;4.03;2.33;;;3.20;99.90;;;;;;5093288;28;20024;-76
2022/04/10 04:16:07;;;;;;;12.45;2.22;;;3.20;99.90;;;;;;5076267;28;20029;-76
2022/04/10 04:18:33;;;;;;;10.25;2.50;;;3.20;99.90;;;;;;5075545;28;20049;-76
2022/04/10 04:20:58;;;;;;;7.90;2.60;;;3.10;99.90;;;;;;5075822;28;20048;-76
2022/04/10 04:23:24;;;;;;;7.35;2.67;;;3.10;99.90;;;;;;5075380;28;20025;-76
2022/04/10 04:25:50;;;;;;;9.00;2.33;;;3.10;99.90;;;;;;5075959;28;20029;-76
2022/04/10 04:28:16;;;;;;;6.75;2.50;;;3.10;99.90;;;;;;5075585;28;20025;-76
2022/04/10 04:30:41;;;;;;;6.93;2.50;;;3.00;99.90;;;;;;5075241;28;20009;-76
2022/04/10 04:33:07;;;;;;;8.38;2.30;;;3.00;99.90;;;;;;5074905;28;20040;-76
2022/04/10 04:35:33;;;;;;;8.18;2.30;;;3.00;99.90;;;;;;5075438;28;20015;-76
2022/04/10 04:38:00;;;;;;;8.60;2.30;;;3.00;99.90;;;;;;5076221;28;20017;-76
2022/04/10 04:40:25;;;;;;;10.98;2.65;;;2.90;99.90;;;;;;5075798;28;20012;-76
2022/04/10 04:42:51;;;;;;;7.15;2.53;;;2.90;99.90;;;;;;5075276;28;20005;-76
2022/04/10 04:45:18;;;;;;;7.80;2.60;;;2.90;99.90;;;;;;5075689;28;20033;-76
2022/04/10 04:47:44;;;;;;;8.10;2.55;;;2.90;99.90;;;;;;5076090;28;20040;-76
2022/04/10 04:50:09;;;;;;;6.70;2.53;;;2.90;99.90;;;;;;5075351;28;20042;-76
2022/04/10 04:52:35;;;;;;;7.05;2.53;;;2.90;99.90;;;;;;5075450;28;20021;-76
2022/04/10 04:55:01;;;;;;;6.53;2.50;;;2.80;99.90;;;;;;5075148;28;20021;-76
2022/04/10 04:57:26;;;;;;;9.95;2.85;;;2.80;99.90;;;;;;5075142;28;20009;-76
2022/04/10 04:59:52;;;;;;;6.72;2.33;;;2.80;99.90;;;;;;5074808;28;20113;-76
2022/04/10 05:02:17;;;;;;;9.13;2.70;;;2.80;99.90;;;;;;5075148;28;20040;-76
2022/04/10 05:04:43;;;;;;;6.18;2.60;;;2.80;99.90;;;;;;5074876;28;20028;-76
2022/04/10 05:07:08;;;;;;;9.10;2.95;;;2.80;99.90;;;;;;5074668;28;20029;-76
2022/04/10 05:09:34;;;;;;;7.60;2.72;;;2.80;99.90;;;;;;5075064;28;20033;-76
2022/04/10 05:12:00;;;;;;;8.20;2.50;;;2.80;99.90;;;;;;5075248;28;20066;-76
2022/04/10 05:14:25;;;;;;;7.45;2.75;;;2.80;99.90;;;;;;5083469;28;20054;-76
2022/04/10 05:16:51;;;;;;;11.20;3.08;;;2.80;99.90;;;;;;5094868;28;20052;-76
2022/04/10 05:19:16;;;;;;;5.68;2.47;;;2.90;99.90;;;;;;5093823;28;20036;-76
2022/04/10 05:21:42;;;;;;;7.78;2.47;;;2.90;99.90;;;;;;5093604;28;20021;-76
2022/04/10 05:24:08;;;;;;;9.30;2.58;;;2.90;99.90;;;;;;5093198;28;20092;-76
2022/04/10 05:26:33;;;;;;;10.20;3.03;;;2.90;99.90;;;;;;5093403;28;20032;-76
2022/04/10 05:28:59;;;;;;;6.57;2.65;;;2.90;99.90;;;;;;5093087;28;20055;-76
2022/04/10 05:31:25;;;;;;;10.02;2.85;;;3.00;99.90;;;;;;5093607;28;20019;-76
2022/04/10 05:33:51;;;;;;;11.50;3.20;;;3.00;99.90;;;;;;5093274;28;20021;-76
2022/04/10 05:36:17;;;;;;;7.55;2.75;;;3.00;99.90;;;;;;5093068;28;20025;-76
2022/04/10 05:38:45;;;;;;;7.25;2.45;;;3.00;99.90;;;;;;5093719;28;20020;-76
2022/04/10 05:41:14;;;;;;;11.40;2.70;;;3.00;99.90;;;;;;5093775;28;20074;-76
2022/04/10 05:43:40;;;;;;;6.60;2.58;;;3.10;99.90;;;;;;5094451;28;20024;-76
2022/04/10 05:46:05;;;;;;;6.05;2.60;;;3.20;99.90;;;;;;5093470;28;20024;-76
2022/04/10 05:48:31;;;;;;;8.40;2.67;;;3.20;99.90;;;;;;5093811;28;20032;-76
2022/04/10 05:50:57;;;;;;;6.40;2.92;;;3.30;99.90;;;;;;5074552;28;20040;-76
2022/04/10 05:53:24;;;;;;;6.38;2.10;;;3.30;99.90;;;;;;5089890;28;20277;-76
2022/04/10 05:55:49;;;;;;;10.65;2.50;;;3.30;99.90;;;;;;5085350;28;20013;-76
2022/04/10 05:58:15;;;;;;;7.40;2.38;;;3.30;99.90;;;;;;5081384;28;20100;-76
2022/04/10 06:00:40;;;;;;;14.02;2.78;;;3.40;99.90;;;;;;5082615;28;20023;-76
2022/04/10 06:03:06;;;;;;;12.00;2.78;;;3.40;99.90;;;;;;5082813;28;20277;-76
2022/04/10 06:05:31;;;;;;;7.70;2.53;;;3.50;99.90;;;;;;5077119;28;20017;-76
2022/04/10 06:07:57;;;;;;;11.43;2.92;;;3.50;99.90;;;;;;5075579;28;20048;-76
2022/04/10 06:10:23;;;;;;;8.52;2.67;;;3.50;99.90;;;;;;5073168;28;20044;-76
2022/04/10 06:12:48;;;;;;;12.75;2.60;;;3.60;99.90;;;;;;5074935;28;20029;-76
2022/04/10 06:15:17;;;;;;;11.05;2.85;;;3.70;99.90;;;;;;5071991;28;20021;-76
2022/04/10 06:17:43;;;;;;;12.50;2.80;;;3.80;99.90;;;;;;5072388;28;20048;-76
2022/04/10 06:20:10;;;;;;;13.35;3.38;;;3.80;99.90;;;;;;5072239;28;20020;-76
2022/04/10 06:22:36;;;;;;;7.88;2.88;;;3.90;99.90;;;;;;5055351;28;20036;-77
2022/04/10 06:25:02;;;;;;;12.68;2.70;;;4.00;99.90;;;;;;5076665;28;20027;-76
2022/04/10 06:27:27;;;;;;;7.60;2.58;;;4.10;99.90;;;;;;5071459;28;20361;-76
2022/04/10 06:29:53;;;;;;;10.07;2.50;;;4.20;99.90;;;;;;5070608;28;20025;-76
2022/04/10 06:32:18;;;;;;;8.68;2.58;;;4.30;99.90;;;;;;5072493;28;20033;-76
2022/04/10 06:34:44;;;;;;;10.07;2.33;;;4.40;99.90;;;;;;5071136;28;20111;-76
2022/04/10 06:37:10;;;;;;;6.90;1.92;;;4.60;99.90;;;;;;5068801;28;20032;-76
2022/04/10 06:39:36;;;;;;;7.95;2.05;;;4.70;99.90;;;;;;5066716;28;20426;-76
2022/04/10 06:42:04;;;;;;;7.28;1.90;;;4.80;99.90;;;;;;5065066;28;20021;-76
2022/04/10 06:44:30;;;;;;;6.90;1.70;;;4.90;99.90;;;;;;5066993;28;20039;-76
2022/04/10 06:46:55;;;;;;;9.00;1.83;;;5.10;99.90;;;;;;5065826;28;20028;-76
2022/04/10 06:49:22;;;;;;;8.90;1.70;;;5.20;99.90;;;;;;5072637;28;20453;-76
2022/04/10 06:51:47;;;;;;;9.73;2.00;;;5.30;99.90;;;;;;5069784;28;20021;-76
2022/04/10 06:54:13;;;;;;;6.95;1.80;;;5.40;99.90;;;;;;5069397;28;20387;-76
2022/04/10 06:56:38;;;;;;;11.48;1.98;;;5.60;99.90;;;;;;5069592;28;20055;-76
2022/04/10 06:59:04;;;;;;;9.68;2.10;;;5.60;99.90;;;;;;5068829;28;20048;-76
2022/04/10 07:01:30;;;;;;;8.63;1.70;;;5.70;99.90;;;;;;5063609;28;20148;-77
2022/04/10 07:03:58;;;;;;;9.68;1.55;;;5.90;99.90;;;;;;5070318;28;20040;-77
2022/04/10 07:06:23;;;;;;;7.10;1.50;;;6.10;99.90;;;;;;5057246;28;20025;-76
2022/04/10 07:08:49;;;;;;;8.07;1.58;;;6.20;99.90;;;;;;5056793;28;20017;-76
2022/04/10 07:11:14;;;;;;;7.95;1.48;;;6.30;99.90;;;;;;5056168;28;20020;-76
2022/04/10 07:13:40;;;;;;;6.03;1.40;;;6.40;99.90;;;;;;5065170;28;20104;-77
2022/04/10 07:16:05;;;;;;;6.40;1.20;;;6.50;99.90;;;;;;5061682;28;20028;-76
2022/04/10 07:18:31;;;;;;;6.28;1.60;;;6.70;99.90;;;;;;5068814;28;20052;-76
2022/04/10 07:20:56;;;;;;;10.40;1.67;;;6.80;99.90;;;;;;5066854;28;20143;-77
2022/04/10 07:26:08;;;;;;;13.15;1.65;;;6.90;99.90;;;;;;5060592;28;20036;-77
2022/04/10 07:28:34;;;;;;;8.57;1.55;;;7.00;99.90;;;;;;5066255;28;20021;-76
2022/04/10 07:31:00;;;;;;;7.75;1.60;;;7.00;99.90;;;;;;5062123;28;20027;-77
2022/04/10 07:33:26;;;;;;;7.22;1.40;;;7.10;99.90;;;;;;5055490;28;20497;-77
2022/04/10 07:35:51;;;;;;;10.25;1.50;;;7.20;99.90;;;;;;5053348;28;20078;-77
2022/04/10 07:38:17;;;;;;;9.50;1.80;;;7.20;99.90;;;;;;5037367;28;20476;-78
2022/04/10 07:40:43;;;;;;;7.32;1.48;;;7.30;99.90;;;;;;5072747;28;20499;-77
2022/04/10 07:43:09;;;;;;;10.05;1.35;;;7.40;99.90;;;;;;5072609;28;20032;-77
2022/04/10 07:48:18;;;;;;;4.70;1.05;;;7.60;99.90;;;;;;5069471;28;20249;-77
2022/04/10 07:50:44;;;;;;;3.28;0.98;;;7.70;99.90;;;;;;5070160;28;20550;-77
2022/04/10 07:53:10;;;;;;;4.28;1.50;;;7.80;99.90;;;;;;5061789;28;20029;-77
2022/04/10 07:55:35;;;;;;;6.75;1.45;;;7.80;99.90;;;;;;5069827;28;20476;-78
2022/04/10 07:58:01;;;;;;;7.28;1.17;;;7.90;99.90;;;;;;5061472;28;20029;-78
2022/04/10 08:00:32;;;;;;;5.18;1.02;;;8.00;99.90;;;;;;5064416;28;20029;-77
2022/04/10 08:02:58;;;;;;;5.63;1.20;;;8.00;99.90;;;;;;5063884;28;20035;-77
2022/04/10 08:05:24;;;;;;;7.22;1.30;;;8.00;99.90;;;;;;5066532;28;20499;-77
2022/04/10 08:07:51;;;;;;;4.57;1.02;;;8.00;99.90;;;;;;5057980;28;20021;-76
2022/04/10 08:10:16;;;;;;;7.88;1.75;;;8.10;99.90;;;;;;5051573;28;20032;-76
2022/04/10 08:12:43;;;;;;;1.95;0.88;;;8.20;99.90;;;;;;5054494;28;20349;-76
2022/04/10 08:15:10;;;;;;;4.70;1.30;;;8.40;99.90;;;;;;5071640;28;20033;-76
2022/04/10 08:17:37;;;;;;;6.13;1.25;;;8.50;97.70;;;;;;5071855;28;20531;-76
2022/04/10 08:20:05;;;;;;;4.93;0.85;;;8.60;97.40;;;;;;5070351;28;20097;-76
2022/04/10 08:22:32;;;;;;;7.55;1.05;;;8.60;97.00;;;;;;5072645;28;20082;-74
2022/04/10 08:25:02;;;;;;;7.45;1.33;;;8.70;97.10;;;;;;5071990;28;20112;-75
2022/04/10 08:27:29;;;;;;;3.42;1.00;;;8.70;97.40;;;;;;5065634;28;20048;-76
2022/04/10 08:29:55;;;;;;;3.88;1.10;;;8.70;97.10;;;;;;5061578;28;20028;-76
2022/04/10 08:32:20;;;;;;;8.80;1.30;;;8.60;97.80;;;;;;5068217;28;20020;-76
2022/04/10 08:34:46;;;;;;;8.43;1.45;;;8.70;98.00;;;;;;5071454;28;20033;-76
2022/04/10 08:37:12;;;;;;;8.65;1.30;;;8.70;98.60;;;;;;5064028;28;20056;-76
2022/04/10 08:39:38;;;;;;;5.00;1.00;;;8.80;98.40;;;;;;5062360;28;20476;-76
2022/04/10 08:42:08;;;;;;;6.13;1.17;;;8.80;97.40;;;;;;5063592;28;20029;-76
2022/04/10 08:44:34;;;;;;;3.95;1.00;;;8.90;96.90;;;;;;5064929;28;20028;-76
2022/04/10 08:47:00;;;;;;;5.22;1.25;;;9.00;96.50;;;;;;5063766;28;20040;-76
2022/04/10 08:49:29;;;;;;;4.57;1.27;;;9.20;96.20;;;;;;5064516;28;20028;-77
2022/04/10 08:51:55;;;;;;;8.02;1.10;;;9.40;94.80;;;;;;5064980;28;20024;-76
2022/04/10 08:54:22;;;;;;;5.70;1.10;;;9.50;92.10;;;;;;5069932;28;20531;-76
2022/04/10 08:56:47;;;;;;;6.43;1.55;;;9.40;92.60;;;;;;5070376;28;20032;-77
2022/04/10 08:59:13;;;;;;;7.90;1.13;;;9.40;93.40;;;;;;5071320;28;20028;-76
2022/04/10 09:01:40;;;;;;;6.00;1.10;;;9.30;93.20;;;;;;5068109;28;20082;-77
2022/04/10 09:04:05;;;;;;;3.38;1.20;;;9.40;93.00;;;;;;5066891;28;20077;-76
2022/04/10 09:06:31;;;;;;;5.63;1.10;;;9.50;92.30;;;;;;5069406;28;20024;-76
2022/04/10 09:09:30;;;;;;;5.82;1.20;;;9.70;93.00;;;;;;5066221;28;20348;-77
2022/04/10 09:11:56;;;;;;;3.67;1.20;;;9.90;90.90;;;;;;5047407;28;20522;-76
2022/04/10 09:14:24;;;;;;;3.47;0.95;;;10.00;89.20;;;;;;5055050;28;20040;-76
2022/04/10 09:17:16;;;;;;;5.55;1.08;;;10.10;90.30;;;;;;5072005;28;20057;-77
2022/04/10 09:19:51;;;;;;;7.43;1.23;;;10.10;89.90;;;;;;5070915;28;20416;-76
2022/04/10 09:22:22;;;;;;;2.87;0.90;;;10.20;86.50;;;;;;5073536;28;20020;-76
2022/04/10 09:25:09;;;;;;;2.97;1.10;;;10.30;86.00;;;;;;5072582;28;20044;-76
2022/04/10 09:27:41;;;;;;;6.30;1.38;;;10.50;86.50;;;;;;5063733;28;20086;-76
2022/04/10 09:30:10;;;;;;;4.35;1.02;;;10.70;81.90;;;;;;5071298;28;20020;-77
2022/04/10 09:32:51;;;;;;;5.57;1.17;;;10.70;81.50;;;;;;5067533;28;20017;-77
2022/04/10 09:35:19;;;;;;;4.63;1.00;;;10.80;81.70;;;;;;5047858;28;20029;-77
2022/04/10 09:37:49;;;;;;;4.32;1.10;;;10.90;78.90;;;;;;5066933;28;20025;-76
2022/04/10 09:40:26;;;;;;;4.28;1.20;;;10.90;80.00;;;;;;5069008;28;20031;-76
2022/04/10 09:43:01;;;;;;;6.57;1.20;;;11.10;79.50;;;;;;5066686;28;20452;-76
2022/04/10 09:45:38;;;;;;;6.38;1.27;;;11.30;78.80;;;;;;5066029;28;20036;-76
2022/04/10 09:48:24;;;;;;;6.05;1.45;;;11.50;78.90;;;;;;5060712;28;20032;-75
2022/04/10 09:50:52;;;;;;;4.95;1.13;;;11.70;78.10;;;;;;5057546;28;20025;-76
2022/04/10 09:53:18;;;;;;;5.68;1.27;;;11.80;76.60;;;;;;5050272;28;20021;-76
2022/04/10 09:55:50;;;;;;;4.43;1.15;;;12.00;76.80;;;;;;5050058;28;20334;-75
2022/04/10 09:58:18;;;;;;;6.65;1.17;;;12.10;74.60;;;;;;5063823;28;20043;-75
2022/04/10 10:00:45;;;;;;;8.23;1.30;;;12.10;72.70;;;;;;5069742;28;20054;-76
2022/04/10 10:03:10;;;;;;;6.55;1.02;;;12.10;73.80;;;;;;5069878;28;20028;-76
2022/04/10 10:05:37;;;;;;;6.00;1.27;;;12.00;70.30;;;;;;5069803;28;20052;-75
2022/04/10 10:08:03;;;;;;;7.80;1.48;;;11.90;69.70;;;;;;5069792;28;20753;-75
2022/04/10 10:10:31;;;;;;;6.53;1.23;;;11.70;69.50;;;;;;5069705;28;20440;-75
2022/04/10 10:13:02;;;;;;;6.65;1.30;;;11.60;67.70;;;;;;5069726;28;20482;-76
2022/04/10 10:15:28;;;;;;;5.95;1.20;;;11.60;69.70;;;;;;5069222;28;20106;-76
2022/04/10 10:17:54;;;;;;;2.65;1.10;;;11.50;67.40;;;;;;5068687;28;20072;-77
2022/04/10 10:20:23;;;;;;;5.18;1.13;;;11.50;68.20;;;;;;5061870;28;20462;-76
2022/04/10 10:22:50;;;;;;;3.38;1.15;;;11.60;69.50;;;;;;5062338;28;20059;-77
2022/04/10 10:25:27;;;;;;;3.80;1.10;;;11.80;68.40;;;;;;5069396;28;20141;-76
2022/04/10 10:28:27;;;;;;;5.03;1.35;;;11.90;68.20;;;;;;5064710;28;20037;-76
2022/04/10 10:31:14;;;;;;;4.45;1.08;;;12.10;70.40;;;;;;5060599;28;20021;-75
2022/04/10 10:33:52;;;;;;;2.10;0.88;;;12.40;62.00;;;;;;5069030;28;20105;-75
2022/04/10 10:36:26;;;;;;;3.25;1.10;;;12.40;63.80;;;;;;5058519;28;20044;-76
2022/04/10 10:38:53;;;;;;;2.22;0.90;;;12.50;63.10;;;;;;5067004;28;20036;-74
2022/04/10 10:41:19;;;;;;;6.00;1.33;;;12.60;61.00;;;;;;5073235;28;20024;-76
2022/04/10 10:43:46;;;;;;;6.28;1.67;;;12.70;61.40;;;;;;5073927;28;20047;-74
2022/04/10 10:46:32;;;;;;;4.10;1.20;;;12.80;61.90;;;;;;5075041;28;20048;-77
2022/04/10 10:49:20;;;;;;;4.90;1.15;;;12.90;64.50;;;;;;5077245;28;20032;-76
2022/04/10 10:51:51;;;;;;;7.30;1.67;;;13.20;64.30;;;;;;5073103;28;20027;-75
2022/04/10 10:54:26;;;;;;;6.15;1.30;;;13.30;63.80;;;;;;5077690;28;20358;-74
2022/04/10 10:56:51;;;;;;;;;;;13.50;64.50;;;;;;5059806;28;20246;-75
2022/04/10 10:59:24;;;;;;;9.85;1.30;;;13.60;62.80;;;;;;5056863;28;20197;-72
2022/04/10 11:02:19;;;;;;;9.88;1.83;;;13.70;62.50;;;;;;5057258;28;20025;-72
2022/04/10 11:04:50;;;;;;;7.28;1.40;;;13.80;61.90;;;;;;5053239;28;20037;-73
2022/04/10 11:07:19;;;;;;;3.58;1.15;;;13.90;60.40;;;;;;5035463;28;20115;-73
2022/04/10 11:09:58;;;;;;;2.80;0.98;;;14.00;59.70;;;;;;5071521;28;20032;-74
2022/04/10 11:12:54;;;;;;;3.58;1.05;;;14.10;59.80;;;;;;5073231;28;20522;-74
2022/04/10 11:15:22;;;;;;;7.03;1.55;;;14.20;57.00;;;;;;5072549;28;20036;-74
2022/04/10 11:17:50;;;;;;;5.10;1.70;;;13.90;57.50;;;;;;5071877;28;20068;-75
2022/04/10 11:20:18;;;;;;;4.00;1.40;;;13.70;57.40;;;;;;5065593;28;20025;-74
2022/04/10 11:22:52;;;;;;;7.35;1.38;;;13.70;57.20;;;;;;5072137;28;20025;-74
2022/04/10 11:25:30;;;;;;;4.68;1.40;;;13.60;58.60;;;;;;5074484;28;20039;-73
2022/04/10 11:28:01;;;;;;;4.25;1.30;;;13.70;57.70;;;;;;5073901;28;20494;-74
2022/04/10 11:30:41;;;;;;;4.30;1.23;;;13.80;57.80;;;;;;5067420;28;20480;-76
2022/04/10 11:33:12;;;;;;;3.13;1.17;;;13.90;57.40;;;;;;5078215;28;20132;-82
2022/04/10 11:35:39;;;;;;;4.20;1.25;;;14.00;56.80;;;;;;5073628;28;20025;-82
2022/04/10 11:38:18;;;;;;;3.72;1.30;;;13.80;56.90;;;;;;5073691;28;20016;-82
2022/04/10 11:40:47;;;;;;;2.40;1.10;;;13.70;56.70;;;;;;5076997;28;20554;-82
2022/04/10 11:43:15;;;;;;;5.25;1.00;;;13.70;57.00;;;;;;5077075;28;20025;-82
2022/04/10 11:45:42;;;;;;;4.00;1.20;;;13.80;57.00;;;;;;5075271;28;20456;-82
2022/04/10 11:48:09;;;;;;;5.93;1.40;;;13.80;56.80;;;;;;5073376;28;20081;-83
2022/04/10 11:50:36;;;;;;;5.35;1.70;;;13.70;56.90;;;;;;5072451;28;20044;-81
2022/04/10 11:53:11;;;;;;;4.18;1.40;;;13.80;56.80;;;;;;5069965;28;20404;-81
2022/04/10 11:55:38;;;;;;;4.03;1.02;;;13.80;56.00;;;;;;5092830;28;20009;-80
2022/04/10 11:58:21;;;;;;;5.90;1.42;;;13.90;56.70;;;;;;5088178;28;20023;-82
2022/04/10 12:00:53;;;;;;;2.88;1.00;;;14.10;56.40;;;;;;5079853;28;20031;-81
2022/04/10 12:03:21;;;;;;;5.10;1.10;;;14.20;55.30;;;;;;5073452;28;20037;-81
2022/04/10 12:05:48;;;;;;;3.92;1.15;;;14.30;56.00;;;;;;5055117;28;20049;-81
2022/04/10 12:08:14;;;;;;;3.95;1.10;;;14.40;55.30;;;;;;5071514;28;20020;-81
2022/04/10 12:10:40;;;;;;;8.73;1.40;;;14.60;55.00;;;;;;5064408;28;20464;-81
2022/04/10 12:13:09;;;;;;;4.03;1.20;;;14.80;54.50;;;;;;5071735;28;20037;-81
2022/04/10 12:15:35;;;;;;;5.32;1.42;;;15.00;53.10;;;;;;5059001;28;20013;-81
2022/04/10 12:18:05;;;;;;;4.55;1.65;;;14.70;50.50;;;;;;5066622;28;20049;-81
2022/04/10 12:20:31;;;;;;;3.05;1.40;;;14.50;52.80;;;;;;5052917;28;20025;-81
2022/04/10 12:22:58;;;;;;;6.80;1.50;;;14.60;53.90;;;;;;5048409;28;20124;-80
2022/04/10 12:25:24;;;;;;;4.93;1.20;;;14.80;54.30;;;;;;5073012;28;20480;-79
2022/04/10 12:27:51;;;;;;;3.55;1.40;;;15.10;53.40;;;;;;5073721;28;20039;-77
2022/04/10 12:30:18;;;;;;;4.53;1.25;;;15.30;51.90;;;;;;5076173;28;20045;-81
2022/04/10 12:32:44;;;;;;;4.03;1.27;;;15.40;52.20;;;;;;5073135;28;20074;-82
2022/04/10 12:35:12;;;;;;;4.75;1.35;;;15.50;51.10;;;;;;5072422;28;20031;-79
2022/04/10 12:37:58;;;;;;;4.70;1.20;;;15.60;50.00;;;;;;5072335;28;20020;-78
2022/04/10 12:40:27;;;;;;;2.47;1.13;;;15.70;49.70;;;;;;5043915;28;20374;-79
2022/04/10 12:43:01;;;;;;;7.00;1.40;;;15.80;50.00;;;;;;5052541;28;20063;-79
2022/04/10 12:45:35;;;;;;;4.72;1.20;;;15.90;49.50;;;;;;5069768;28;20052;-79
2022/04/10 12:48:01;;;;;;;6.05;1.30;;;16.00;50.10;;;;;;5067487;28;20036;-79
2022/04/10 12:50:28;;;;;;;2.58;1.20;;;16.20;49.20;;;;;;5073655;28;20598;-78
2022/04/10 12:52:55;;;;;;;3.83;1.35;;;16.10;47.70;;;;;;5073445;28;20040;-80
2022/04/10 12:55:32;;;;;;;5.45;1.30;;;16.00;48.10;;;;;;5074567;28;20138;-81
2022/04/10 12:58:05;;;;;;;5.15;1.20;;;16.00;48.40;;;;;;5078466;28;20089;-81
2022/04/10 13:00:37;;;;;;;6.60;1.27;;;16.00;48.00;;;;;;5060473;28;20111;-81